Billings, MT (59101)

2:06 PM MST on December 05, 2016 (GMT -0700)
| | Change Station

Elev -9999 ft 0.00 °N, 0.00 °E | Updated

Cloudy
Cloudy
24 °F
Feels Like 12 °F
N
15
Wind Variable Wind from NW
Gusts 20 mph

Today
High -- | Low -- °F
--% Chance of Precip.
Yesterday
High -- | Low -- °F
Precip. -- in
Pressure 30.05 in
Visibility 10.0 miles
Clouds Scattered Clouds 7000 ft
Overcast 8500 ft
Windchill 12 °F
Dew Point 7 °F
Humidity 47%
Rainfall --
Snow Depth Not available.
7:39 AM 4:29 PM
Waxing Crescent, 34% visible
METAR KBIL 052053Z 34017G26KT 10SM SCT070 OVC085 M05/M16 A2994 RMK AO2 PK WND 32029/2027 SLP174 ACSL DSNT W-NW T10501161 53017
Pressure 30.05 in
Visibility 10.0 miles
Clouds Scattered Clouds 7000 ft
Overcast 8500 ft
Windchill 12 °F
Dew Point 7 °F
Humidity 47%
Rainfall --
Snow Depth Not available.
7:39 AM 4:29 PM
Waxing Crescent, 34% visible
METAR KBIL 052053Z 34017G26KT 10SM SCT070 OVC085 M05/M16 A2994 RMK AO2 PK WND 32029/2027 SLP174 ACSL DSNT W-NW T10501161 53017

10-Day Weather Forecast

Almanac

Astronomy

Dec. 05, 2016 Rise Set
Actual Time
Civil Twilight
Nautical Twilight
Astronomical Twilight
Moon
Length of Visible Light
Length of Day
Tomorrow will be .
, % of the Moon is Illuminated

Today's Extremes

State Highs State Lows

Community

WunderPhotos

Upload Photos

1,955,863 photos uploaded!

WunderBlog® & News

Nearby

Air Quality

  Air Quality AQ Index Pollutant
Not available.

Snow Depth

Station Depth Elevation

Earthquake Activity

City Distance Mag. Time & Date
Minimum magnitude displayed is 2.5.

Coastal Water Temperatures

Place Temperature

Stations

Nearby Weather Stations

Station Location Temp. Windchill Dew Point Humidity Wind Precip. Elev Updated Type
                   

Watches & Warnings

There are currently no watches in effect.